Time;durP1;ratioP1;P1;durP2;ratioP2;P2;SDS_P1;SDS_P2;PMS_P1;PMS_P2;Temp;Humidity;BMP_temperature;BMP_pressure;BME280_temperature;BME280_humidity;BME280_pressure;Samples;Min_cycle;Max_cycle;Signal;HPM_P1;HPM_P2
2021/09/30 00:01:39;;;;;;;4.82;0.85;;;;;;;;;;5092950;28;20028;-76
2021/09/30 00:04:04;;;;;;;2.38;0.70;;;;;;;;;;5092360;28;20028;-75
2021/09/30 00:06:30;;;;;;;3.03;0.82;;;;;;;;;;5092010;28;20504;-75
2021/09/30 00:08:56;;;;;;;2.47;0.73;;;;;;;;;;5091404;28;20044;-75
2021/09/30 00:11:26;;;;;;;5.13;1.05;;;;;;;;;;5093078;28;20552;-75
2021/09/30 00:13:57;;;;;;;2.92;0.95;;;;;;;;;;5093103;28;20044;-75
2021/09/30 00:16:35;;;;;;;0.95;0.70;;;;;;;;;;5092455;28;20119;-75
2021/09/30 00:35:25;;;;;;;3.05;0.77;;;;;;;;;;5092944;28;20109;-75
2021/09/30 00:40:53;;;;;;;3.15;1.05;;;;;;;;;;5092635;28;20101;-75
2021/09/30 00:46:07;;;;;;;4.20;0.93;;;;;;;;;;5094827;28;20035;-75
2021/09/30 01:30:12;;;;;;;5.03;1.30;;;;;;;;;;5092742;28;20040;-75
2021/09/30 01:58:22;;;;;;;4.45;1.10;;;;;;;;;;5093304;28;20031;-75
2021/09/30 02:59:24;;;;;;;4.75;1.63;;;;;;;;;;5093234;28;20494;-74
2021/09/30 03:01:52;;;;;;;5.55;1.42;;;;;;;;;;5092604;28;20035;-75
2021/09/30 03:04:19;;;;;;;10.18;1.50;;;;;;;;;;5093897;28;20120;-77
2021/09/30 03:06:45;;;;;;;3.38;1.42;;;;;;;;;;5089949;28;20407;-75
2021/09/30 03:09:13;;;;;;;8.00;1.67;;;;;;;;;;5090902;28;20048;-75
2021/09/30 03:11:41;;;;;;;5.47;1.40;;;;;;;;;;5070707;28;20582;-75
2021/09/30 03:14:10;;;;;;;6.20;1.95;;;;;;;;;;5089592;28;20028;-75
2021/09/30 03:16:44;;;;;;;12.63;1.95;;;;;;;;;;5090782;28;20043;-75
2021/09/30 03:24:32;;;;;;;2.67;1.65;;;;;;;;;;5091206;28;20081;-75
2021/09/30 03:27:00;;;;;;;6.03;1.58;;;;;;;;;;5091573;28;20032;-74
2021/09/30 03:29:26;;;;;;;5.80;2.88;;;;;;;;;;5073781;28;20032;-74
2021/09/30 03:31:51;;;;;;;8.18;1.63;;;;;;;;;;5090417;28;20054;-74
2021/09/30 03:34:36;;;;;;;2.92;1.40;;;;;;;;;;5092762;28;20159;-74
2021/09/30 03:37:02;;;;;;;3.60;1.60;;;;;;;;;;5091434;28;20128;-74
2021/09/30 03:39:29;;;;;;;2.45;1.63;;;;;;;;;;5091930;28;20035;-74
2021/09/30 03:41:55;;;;;;;5.97;1.80;;;;;;;;;;5091983;28;20028;-74
2021/09/30 03:44:25;;;;;;;7.25;1.50;;;;;;;;;;5091842;28;20027;-74
2021/09/30 03:46:52;;;;;;;3.15;1.08;;;;;;;;;;5074651;28;20032;-74
2021/09/30 03:49:44;;;;;;;9.75;1.70;;;;;;;;;;5091820;28;20467;-75
2021/09/30 03:52:15;;;;;;;6.07;2.17;;;;;;;;;;5091611;28;20482;-75
2021/09/30 03:54:54;;;;;;;7.90;2.08;;;;;;;;;;5092094;28;20036;-75
2021/09/30 03:59:45;;;;;;;3.88;1.40;;;;;;;;;;5090898;28;20060;-75
2021/09/30 04:02:24;;;;;;;7.45;2.00;;;;;;;;;;5091403;28;20039;-75
2021/09/30 04:04:50;;;;;;;3.67;1.77;;;;;;;;;;5091736;28;20040;-75
2021/09/30 04:07:18;;;;;;;2.53;1.40;;;;;;;;;;5092563;28;20067;-75
2021/09/30 04:09:44;;;;;;;4.70;2.70;;;;;;;;;;5091558;28;20074;-75
2021/09/30 04:12:11;;;;;;;7.88;1.83;;;;;;;;;;5091496;28;20036;-74
2021/09/30 04:14:38;;;;;;;3.72;1.70;;;;;;;;;;5091406;28;20032;-74
2021/09/30 04:17:04;;;;;;;2.55;1.45;;;;;;;;;;5091780;28;20550;-74
2021/09/30 04:19:31;;;;;;;4.55;1.70;;;;;;;;;;5079006;28;20028;-77
2021/09/30 04:21:58;;;;;;;5.00;1.70;;;;;;;;;;5095481;28;20042;-75
2021/09/30 04:24:24;;;;;;;2.38;1.35;;;;;;;;;;5095627;28;20036;-75
2021/09/30 04:26:51;;;;;;;4.97;1.90;;;;;;;;;;5094587;28;20032;-75
2021/09/30 04:29:18;;;;;;;6.00;1.83;;;;;;;;;;5093609;28;20023;-75
2021/09/30 04:31:44;;;;;;;4.65;1.30;;;;;;;;;;5095383;28;20043;-76
2021/09/30 04:34:11;;;;;;;3.35;1.27;;;;;;;;;;5095305;28;20028;-76
2021/09/30 04:36:36;;;;;;;4.03;2.20;;;;;;;;;;5095125;28;20050;-77
2021/09/30 04:39:02;;;;;;;2.97;1.80;;;;;;;;;;5095269;28;20031;-76
2021/09/30 04:41:31;;;;;;;11.15;1.65;;;;;;;;;;5095110;28;20425;-76
2021/09/30 04:43:57;;;;;;;2.97;1.52;;;;;;;;;;5095011;28;20551;-76
2021/09/30 04:46:22;;;;;;;7.10;1.70;;;;;;;;;;5094957;28;20070;-76
2021/09/30 04:49:08;;;;;;;3.78;1.63;;;;;;;;;;5096108;28;20490;-76
2021/09/30 04:51:34;;;;;;;4.45;1.90;;;;;;;;;;5094961;28;20028;-76
2021/09/30 04:53:59;;;;;;;4.88;1.85;;;;;;;;;;5095596;28;20061;-76
2021/09/30 04:56:25;;;;;;;3.00;1.33;;;;;;;;;;5095144;28;20161;-76
2021/09/30 04:58:55;;;;;;;9.57;1.75;;;;;;;;;;5094765;28;20055;-76
2021/09/30 05:01:21;;;;;;;2.60;1.42;;;;;;;;;;5094703;28;20033;-76
2021/09/30 05:03:50;;;;;;;4.78;2.13;;;;;;;;;;5078170;28;20028;-76
2021/09/30 05:06:15;;;;;;;5.20;1.75;;;;;;;;;;5095708;28;20611;-76
2021/09/30 05:08:44;;;;;;;6.57;1.92;;;;;;;;;;5094274;28;20407;-76
2021/09/30 05:11:10;;;;;;;8.27;2.00;;;;;;;;;;5094666;28;20503;-76
2021/09/30 05:13:36;;;;;;;5.28;1.73;;;;;;;;;;5093806;28;20127;-76
2021/09/30 05:16:04;;;;;;;3.10;1.40;;;;;;;;;;5094866;28;20170;-76
2021/09/30 05:19:02;;;;;;;2.35;1.50;;;;;;;;;;5082674;28;20052;-76
2021/09/30 05:21:29;;;;;;;2.10;1.80;;;;;;;;;;5093751;28;20024;-76
2021/09/30 05:23:55;;;;;;;6.65;1.83;;;;;;;;;;5093689;28;20032;-76
2021/09/30 05:26:22;;;;;;;4.10;1.85;;;;;;;;;;5093549;28;20024;-76
2021/09/30 05:28:49;;;;;;;2.33;1.50;;;;;;;;;;5093012;28;20040;-76
2021/09/30 05:31:16;;;;;;;4.00;1.80;;;;;;;;;;5077272;28;20248;-77
2021/09/30 05:34:04;;;;;;;3.03;1.48;;;;;;;;;;5094466;28;20078;-77
2021/09/30 05:36:31;;;;;;;6.82;2.30;;;;;;;;;;5077488;28;20043;-76
2021/09/30 05:38:57;;;;;;;5.88;1.90;;;;;;;;;;5093964;28;20039;-76
2021/09/30 05:41:24;;;;;;;4.78;1.83;;;;;;;;;;5093993;28;20028;-76
2021/09/30 05:43:53;;;;;;;8.40;2.95;;;;;;;;;;5093817;28;20028;-76
2021/09/30 05:46:29;;;;;;;7.25;3.20;;;;;;;;;;5093829;28;20031;-76
2021/09/30 05:48:55;;;;;;;9.63;2.97;;;;;;;;;;5092264;28;20058;-76
2021/09/30 05:51:20;;;;;;;6.22;2.70;;;;;;;;;;5090299;28;20612;-76
2021/09/30 05:54:15;;;;;;;5.22;2.20;;;;;;;;;;5087358;28;20064;-76
2021/09/30 05:56:49;;;;;;;6.18;2.47;;;;;;;;;;5078012;28;20126;-76
2021/09/30 05:59:20;;;;;;;5.82;2.38;;;;;;;;;;5092636;28;20531;-76
2021/09/30 06:10:43;;;;;;;13.43;4.88;;;;;;;;;;5071847;28;20040;-76
2021/09/30 06:13:15;;;;;;;8.88;5.75;;;;;;;;;;5071405;28;20069;-76
2021/09/30 06:15:43;;;;;;;8.68;5.57;;;;;;;;;;5083255;28;20040;-76
2021/09/30 06:18:09;;;;;;;10.40;6.10;;;;;;;;;;5093047;28;20034;-76
2021/09/30 06:20:38;;;;;;;7.97;2.90;;;;;;;;;;5093259;28;20032;-76
2021/09/30 06:23:05;;;;;;;9.30;2.60;;;;;;;;;;5093276;28;20506;-76
2021/09/30 06:25:31;;;;;;;4.32;2.38;;;;;;;;;;5076309;28;20487;-76
2021/09/30 06:27:56;;;;;;;6.05;2.13;;;;;;;;;;5093022;28;20036;-76
2021/09/30 06:30:29;;;;;;;3.70;2.22;;;;;;;;;;5092353;28;20036;-76
2021/09/30 06:32:57;;;;;;;4.10;2.00;;;;;;;;;;5076287;28;20028;-76
2021/09/30 06:35:42;;;;;;;7.38;2.10;;;;;;;;;;5082788;28;20040;-76
2021/09/30 06:38:08;;;;;;;3.67;1.88;;;;;;;;;;5092819;28;20039;-76
2021/09/30 06:40:37;;;;;;;8.25;1.77;;;;;;;;;;5092062;28;20031;-77
2021/09/30 06:43:02;;;;;;;5.00;1.95;;;;;;;;;;5092972;28;20039;-76
2021/09/30 06:45:54;;;;;;;3.22;1.58;;;;;;;;;;5093413;28;20127;-78
2021/09/30 06:48:48;;;;;;;5.30;2.00;;;;;;;;;;5089872;28;20050;-77
2021/09/30 06:51:46;;;;;;;4.65;1.90;;;;;;;;;;5094977;28;20032;-78
2021/09/30 06:54:11;;;;;;;5.00;1.90;;;;;;;;;;5095475;28;20040;-80
2021/09/30 06:56:57;;;;;;;6.40;2.13;;;;;;;;;;5099931;28;20035;-79
2021/09/30 06:59:51;;;;;;;5.05;1.63;;;;;;;;;;5100879;28;20044;-80
2021/09/30 07:02:41;;;;;;;7.28;1.77;;;;;;;;;;5101840;28;20052;-79
2021/09/30 07:05:33;;;;;;;3.08;1.38;;;;;;;;;;5097803;28;20432;-78
2021/09/30 07:08:06;;;;;;;5.22;1.58;;;;;;;;;;5100461;28;20487;-79
2021/09/30 07:10:32;;;;;;;7.20;2.35;;;;;;;;;;5099654;28;20051;-79
2021/09/30 07:12:57;;;;;;;4.30;1.77;;;;;;;;;;5104966;28;20028;-78
2021/09/30 07:15:23;;;;;;;7.18;1.73;;;;;;;;;;5101540;28;20043;-77
2021/09/30 07:17:49;;;;;;;6.32;1.70;;;;;;;;;;5080212;28;20043;-78
2021/09/30 07:20:14;;;;;;;4.07;1.45;;;;;;;;;;5096780;28;20119;-79
2021/09/30 07:22:40;;;;;;;6.85;1.52;;;;;;;;;;5098414;28;20036;-77
2021/09/30 07:25:06;;;;;;;4.95;1.42;;;;;;;;;;5095619;28;20043;-79
2021/09/30 07:27:31;;;;;;;7.20;2.00;;;;;;;;;;5096162;28;20487;-81
2021/09/30 07:29:57;;;;;;;7.05;2.25;;;;;;;;;;5079211;28;20043;-80
2021/09/30 07:32:24;;;;;;;7.03;1.80;;;;;;;;;;5077685;28;20044;-80
2021/09/30 07:34:52;;;;;;;12.57;2.55;;;;;;;;;;5083933;28;20123;-79
2021/09/30 07:37:19;;;;;;;3.65;1.40;;;;;;;;;;5098075;28;20587;-79
2021/09/30 07:39:44;;;;;;;8.20;1.77;;;;;;;;;;5097312;28;20450;-77
2021/09/30 07:42:10;;;;;;;7.68;2.35;;;;;;;;;;5095304;28;20039;-78
2021/09/30 07:44:36;;;;;;;5.75;1.70;;;;;;;;;;5098839;28;20047;-78
2021/09/30 07:47:03;;;;;;;6.32;1.98;;;;;;;;;;5104658;28;20036;-84
2021/09/30 07:49:28;;;;;;;7.20;1.70;;;;;;;;;;5098226;28;20040;-79
2021/09/30 07:51:54;;;;;;;8.75;2.13;;;;;;;;;;5097036;28;20086;-78
2021/09/30 07:54:19;;;;;;;6.15;1.90;;;;;;;;;;5102365;28;20107;-80
2021/09/30 07:56:45;;;;;;;9.85;2.42;;;;;;;;;;5106689;28;20036;-78
2021/09/30 07:59:10;;;;;;;7.55;1.73;;;;;;;;;;5106532;28;20043;-78
2021/09/30 08:01:36;;;;;;;8.73;2.63;;;;;;;;;;5104451;28;20173;-78
2021/09/30 08:04:03;;;;;;;11.27;2.10;;;;;;;;;;5104800;28;20028;-79
2021/09/30 08:06:29;;;;;;;5.55;1.60;;;;;;;;;;5106455;28;20044;-80
2021/09/30 08:08:55;;;;;;;5.80;1.85;;;;;;;;;;5103009;28;20054;-80
2021/09/30 08:11:22;;;;;;;5.95;1.73;;;;;;;;;;5105732;28;20119;-79
2021/09/30 08:13:47;;;;;;;6.15;1.60;;;;;;;;;;5104484;28;20455;-77
2021/09/30 08:16:14;;;;;;;13.38;2.42;;;;;;;;;;5100825;28;20039;-81
2021/09/30 08:18:43;;;;;;;7.18;2.00;;;;;;;;;;5102593;28;20161;-80
2021/09/30 08:21:12;;;;;;;4.03;1.45;;;;;;;;;;5099805;28;20032;-81
2021/09/30 08:23:38;;;;;;;11.30;2.10;;;;;;;;;;5101860;28;20044;-81
2021/09/30 08:26:03;;;;;;;8.77;2.20;;;;;;;;;;5103509;28;20038;-79
2021/09/30 08:28:28;;;;;;;7.97;2.28;;;;;;;;;;5101586;28;20028;-80
2021/09/30 08:30:55;;;;;;;9.88;1.80;;;;;;;;;;5099557;28;20483;-81
2021/09/30 08:33:22;;;;;;;9.43;2.50;;;;;;;;;;5100448;28;20036;-80
2021/09/30 08:35:49;;;;;;;9.00;1.75;;;;;;;;;;5098940;28;20517;-79
2021/09/30 08:38:14;;;;;;;5.35;1.80;;;;;;;;;;5095791;28;20119;-80
2021/09/30 08:40:41;;;;;;;10.07;2.40;;;;;;;;;;5099092;28;20055;-80
2021/09/30 08:43:06;;;;;;;8.43;2.00;;;;;;;;;;5101552;28;20498;-80
2021/09/30 08:45:32;;;;;;;7.68;1.92;;;;;;;;;;5100371;28;20103;-80
2021/09/30 08:48:02;;;;;;;9.25;2.08;;;;;;;;;;5099443;28;20039;-80
2021/09/30 08:50:33;;;;;;;10.13;2.33;;;;;;;;;;5101276;28;20044;-81
2021/09/30 08:52:59;;;;;;;8.45;2.38;;;;;;;;;;5102452;28;20066;-81
2021/09/30 08:55:25;;;;;;;9.88;2.38;;;;;;;;;;5103107;28;20036;-81
2021/09/30 08:57:52;;;;;;;9.40;2.42;;;;;;;;;;5102222;28;20070;-80
2021/09/30 09:00:20;;;;;;;6.47;2.40;;;;;;;;;;5101827;28;20035;-80
2021/09/30 09:02:48;;;;;;;10.82;2.20;;;;;;;;;;5086232;28;20395;-79
2021/09/30 09:05:18;;;;;;;9.75;2.22;;;;;;;;;;5080939;28;20024;-79
2021/09/30 09:07:53;;;;;;;5.93;1.80;;;;;;;;;;5101829;28;20379;-79
2021/09/30 09:10:20;;;;;;;8.80;2.05;;;;;;;;;;5101146;28;20028;-77
2021/09/30 09:12:46;;;;;;;5.80;1.50;;;;;;;;;;5096332;28;20024;-77
2021/09/30 09:15:12;;;;;;;9.07;2.40;;;;;;;;;;5098162;28;20043;-77
2021/09/30 09:17:40;;;;;;;7.45;1.83;;;;;;;;;;5098812;28;20032;-77
2021/09/30 09:20:08;;;;;;;8.27;2.17;;;;;;;;;;5096864;28;20089;-78
2021/09/30 09:22:36;;;;;;;15.52;2.40;;;;;;;;;;5098869;28;20055;-77
2021/09/30 09:25:07;;;;;;;11.20;2.28;;;;;;;;;;5098174;28;20043;-77
2021/09/30 09:27:59;;;;;;;9.80;1.90;;;;;;;;;;5096518;28;20039;-77
2021/09/30 09:30:38;;;;;;;9.13;1.73;;;;;;;;;;5096363;28;20036;-77
2021/09/30 09:33:20;;;;;;;10.90;2.70;;;;;;;;;;5095692;28;20537;-77
2021/09/30 09:35:56;;;;;;;9.32;2.30;;;;;;;;;;5095938;28;20487;-77
2021/09/30 09:38:28;;;;;;;10.55;2.30;;;;;;;;;;5095444;28;20036;-77
2021/09/30 09:40:57;;;;;;;8.50;1.90;;;;;;;;;;5096122;28;20529;-77
2021/09/30 09:43:44;;;;;;;18.23;2.95;;;;;;;;;;5095739;28;20043;-77
2021/09/30 09:46:11;;;;;;;11.25;1.75;;;;;;;;;;5096092;28;20046;-77
2021/09/30 09:48:37;;;;;;;4.90;1.75;;;;;;;;;;5094576;28;20050;-77
2021/09/30 09:51:11;;;;;;;11.10;2.00;;;;;;;;;;5093622;28;20043;-77
2021/09/30 09:53:37;;;;;;;7.40;1.90;;;;;;;;;;5093724;28;20068;-77
2021/09/30 09:56:18;;;;;;;11.35;2.10;;;;;;;;;;5094650;28;20032;-77
2021/09/30 09:58:44;;;;;;;14.40;2.40;;;;;;;;;;5094225;28;20398;-77
2021/09/30 10:01:09;;;;;;;7.68;2.40;;;;;;;;;;5092913;28;20032;-77
2021/09/30 10:03:35;;;;;;;7.03;1.50;;;;;;;;;;5104897;28;20040;-79
2021/09/30 10:06:03;;;;;;;9.60;1.77;;;;;;;;;;5095920;28;20380;-77
2021/09/30 10:08:29;;;;;;;6.07;1.58;;;;;;;;;;5097339;28;20040;-77
2021/09/30 10:10:56;;;;;;;7.18;2.10;;;;;;;;;;5095590;28;20031;-76
2021/09/30 10:13:24;;;;;;;5.30;1.80;;;;;;;;;;5094368;28;20044;-77
2021/09/30 10:15:54;;;;;;;9.50;1.88;;;;;;;;;;5094217;28;20036;-77
2021/09/30 10:18:22;;;;;;;9.95;1.63;;;;;;;;;;5096907;28;20081;-76
2021/09/30 10:20:49;;;;;;;6.70;1.70;;;;;;;;;;5096893;28;20043;-77
2021/09/30 10:23:21;;;;;;;9.48;2.50;;;;;;;;;;5096852;28;20039;-77
2021/09/30 10:25:47;;;;;;;9.30;2.17;;;;;;;;;;5097198;28;20050;-76
2021/09/30 10:28:13;;;;;;;8.55;1.75;;;;;;;;;;5094201;28;20028;-76
2021/09/30 10:30:40;;;;;;;7.82;1.92;;;;;;;;;;5096356;28;20562;-77
2021/09/30 10:33:08;;;;;;;10.77;2.00;;;;;;;;;;5097291;28;20119;-77
2021/09/30 10:35:36;;;;;;;10.27;2.33;;;;;;;;;;5096789;28;20065;-78
2021/09/30 10:38:28;;;;;;;5.95;1.45;;;;;;;;;;5096623;28;20047;-77
2021/09/30 10:41:00;;;;;;;8.82;1.80;;;;;;;;;;5095425;28;20109;-80
2021/09/30 10:43:28;;;;;;;11.40;1.88;;;;;;;;;;5098683;28;20042;-81
2021/09/30 10:45:58;;;;;;;9.82;1.88;;;;;;;;;;5096276;28;20044;-82
2021/09/30 10:48:48;;;;;;;6.95;1.50;;;;;;;;;;5079937;28;20043;-81
2021/09/30 10:51:14;;;;;;;9.73;1.88;;;;;;;;;;5097413;28;20052;-80
2021/09/30 10:53:45;;;;;;;10.35;2.17;;;;;;;;;;5098032;28;20028;-81
2021/09/30 10:56:34;;;;;;;10.48;1.90;;;;;;;;;;5099080;28;20054;-80
2021/09/30 10:59:22;;;;;;;9.48;1.70;;;;;;;;;;5093661;28;20505;-76
2021/09/30 11:01:47;;;;;;;30.48;17.17;;;;;;;;;;5093654;28;20060;-77
2021/09/30 11:04:15;;;;;;;10.73;2.88;;;;;;;;;;5093990;28;20081;-77
2021/09/30 11:06:40;;;;;;;7.53;2.05;;;;;;;;;;5095569;28;20122;-76
2021/09/30 11:09:17;;;;;;;6.65;1.67;;;;;;;;;;5093256;28;20127;-76
2021/09/30 11:11:51;;;;;;;7.07;1.90;;;;;;;;;;5092635;28;20042;-76
2021/09/30 11:14:20;;;;;;;4.22;1.40;;;;;;;;;;5092559;28;20052;-77
2021/09/30 11:16:52;;;;;;;4.43;1.20;;;;;;;;;;5074549;28;20031;-77
2021/09/30 11:19:33;;;;;;;5.90;1.90;;;;;;;;;;5092372;28;20028;-76
2021/09/30 11:22:05;;;;;;;7.13;2.20;;;;;;;;;;5093203;28;20077;-76
2021/09/30 11:24:36;;;;;;;5.57;1.77;;;;;;;;;;5092112;28;20441;-76
2021/09/30 11:27:01;;;;;;;4.68;1.77;;;;;;;;;;5092096;28;20031;-76
2021/09/30 11:29:29;;;;;;;7.43;1.77;;;;;;;;;;5091834;28;20085;-76
2021/09/30 11:31:54;;;;;;;6.60;1.85;;;;;;;;;;5091964;28;20116;-76
2021/09/30 11:34:32;;;;;;;8.63;1.83;;;;;;;;;;5093177;28;20119;-76
2021/09/30 11:37:00;;;;;;;7.30;1.63;;;;;;;;;;5093000;28;20035;-76
2021/09/30 11:39:33;;;;;;;10.68;2.08;;;;;;;;;;5091957;28;20123;-76
2021/09/30 11:41:59;;;;;;;10.15;1.70;;;;;;;;;;5092895;28;20036;-76
2021/09/30 11:44:24;;;;;;;10.13;1.80;;;;;;;;;;5093125;28;20034;-76
2021/09/30 11:46:51;;;;;;;9.05;1.58;;;;;;;;;;5092635;28;20425;-76
2021/09/30 11:49:18;;;;;;;7.20;1.52;;;;;;;;;;5091632;28;20032;-76
2021/09/30 11:51:47;;;;;;;9.40;1.75;;;;;;;;;;5092604;28;20032;-76
2021/09/30 11:54:14;;;;;;;10.27;1.40;;;;;;;;;;5092816;28;20415;-76
2021/09/30 11:56:48;;;;;;;6.75;1.40;;;;;;;;;;5093302;28;20422;-76
2021/09/30 11:59:16;;;;;;;7.53;1.40;;;;;;;;;;5092037;28;20092;-76
2021/09/30 12:01:46;;;;;;;4.05;1.30;;;;;;;;;;5091917;28;20024;-76
2021/09/30 12:04:14;;;;;;;7.25;1.33;;;;;;;;;;5092686;28;20169;-76
2021/09/30 12:06:45;;;;;;;7.65;2.05;;;;;;;;;;5074391;28;20035;-76
2021/09/30 12:09:12;;;;;;;4.53;1.48;;;;;;;;;;5092339;28;20048;-76
2021/09/30 12:11:40;;;;;;;7.78;1.50;;;;;;;;;;5091598;28;20479;-76
2021/09/30 12:14:08;;;;;;;6.07;1.42;;;;;;;;;;5092926;28;20028;-76
2021/09/30 12:16:33;;;;;;;7.50;1.85;;;;;;;;;;5092824;28;20032;-77
2021/09/30 12:19:04;;;;;;;8.57;1.40;;;;;;;;;;5091355;28;20123;-77
2021/09/30 12:21:34;;;;;;;4.07;1.60;;;;;;;;;;5093154;28;20119;-77
2021/09/30 12:24:01;;;;;;;8.35;1.13;;;;;;;;;;5092568;28;20075;-76
2021/09/30 12:26:26;;;;;;;11.98;1.40;;;;;;;;;;5092923;28;20059;-76
2021/09/30 12:28:52;;;;;;;5.68;1.55;;;;;;;;;;5091991;28;20120;-76
2021/09/30 12:31:17;;;;;;;5.40;1.50;;;;;;;;;;5092448;28;20039;-76
2021/09/30 12:33:43;;;;;;;6.72;1.65;;;;;;;;;;5092311;28;20023;-76
2021/09/30 12:36:08;;;;;;;5.15;1.38;;;;;;;;;;5092303;28;20109;-76
2021/09/30 12:38:35;;;;;;;11.73;1.77;;;;;;;;;;5093179;28;20559;-77
2021/09/30 12:41:05;;;;;;;6.78;1.63;;;;;;;;;;5096296;28;20078;-76
2021/09/30 12:43:32;;;;;;;5.93;1.50;;;;;;;;;;5096275;28;20032;-76
2021/09/30 12:46:01;;;;;;;8.98;3.42;;;;;;;;;;5095187;28;20036;-76
2021/09/30 12:48:32;;;;;;;5.93;1.45;;;;;;;;;;5096360;28;20052;-76
2021/09/30 12:51:09;;;;;;;7.00;1.73;;;;;;;;;;5096236;28;20042;-76
2021/09/30 12:53:43;;;;;;;5.75;1.42;;;;;;;;;;5096115;28;20039;-76
2021/09/30 12:56:11;;;;;;;2.42;1.20;;;;;;;;;;5095851;28;20031;-76
2021/09/30 12:58:39;;;;;;;5.90;1.30;;;;;;;;;;5092559;28;20032;-76
2021/09/30 13:01:25;;;;;;;4.32;1.52;;;;;;;;;;5094966;28;20423;-75
2021/09/30 13:04:11;;;;;;;6.80;1.60;;;;;;;;;;5096251;28;20032;-76
2021/09/30 13:06:41;;;;;;;4.00;1.33;;;;;;;;;;5096323;28;20048;-76
2021/09/30 13:09:21;;;;;;;6.10;1.50;;;;;;;;;;5094296;28;20726;-76
2021/09/30 13:11:55;;;;;;;6.75;1.75;;;;;;;;;;5094759;28;20040;-77
2021/09/30 13:14:24;;;;;;;9.32;1.40;;;;;;;;;;5095636;28;20035;-76
2021/09/30 13:16:53;;;;;;;7.07;1.60;;;;;;;;;;5095583;28;20051;-77
2021/09/30 13:19:20;;;;;;;5.80;1.42;;;;;;;;;;5094418;28;20040;-77
2021/09/30 13:22:00;;;;;;;7.43;1.50;;;;;;;;;;5095593;28;20028;-76
2021/09/30 13:24:26;;;;;;;4.15;1.75;;;;;;;;;;5095474;28;20039;-76
2021/09/30 13:26:52;;;;;;;4.30;1.65;;;;;;;;;;5094505;28;20044;-77
2021/09/30 13:29:18;;;;;;;5.43;1.42;;;;;;;;;;5095175;28;20376;-76
2021/09/30 13:31:43;;;;;;;4.68;1.38;;;;;;;;;;5095779;28;20426;-75
2021/09/30 13:34:08;;;;;;;7.40;1.42;;;;;;;;;;5098736;28;20032;-78
2021/09/30 13:36:34;;;;;;;7.50;2.13;;;;;;;;;;5096678;28;20093;-79
2021/09/30 13:38:59;;;;;;;8.50;1.90;;;;;;;;;;5099458;28;20092;-78
2021/09/30 13:41:25;;;;;;;5.85;1.52;;;;;;;;;;5080457;28;20024;-78
2021/09/30 13:43:52;;;;;;;5.00;1.58;;;;;;;;;;5098300;28;20388;-78
2021/09/30 13:46:18;;;;;;;9.10;1.85;;;;;;;;;;5096613;28;20032;-78
2021/09/30 13:48:44;;;;;;;6.72;1.20;;;;;;;;;;5096956;28;20449;-78
2021/09/30 13:51:10;;;;;;;5.07;1.25;;;;;;;;;;5094773;28;20115;-78
2021/09/30 13:53:35;;;;;;;4.72;1.55;;;;;;;;;;5102974;28;20051;-78
2021/09/30 13:56:00;;;;;;;7.95;1.88;;;;;;;;;;5096948;28;20059;-79
2021/09/30 13:58:26;;;;;;;5.25;1.50;;;;;;;;;;5098158;28;20046;-79
2021/09/30 14:00:52;;;;;;;6.35;1.55;;;;;;;;;;5095531;28;20040;-77
2021/09/30 14:03:18;;;;;;;6.32;1.92;;;;;;;;;;5079572;28;20086;-79
2021/09/30 14:05:43;;;;;;;10.93;1.50;;;;;;;;;;5097480;28;20466;-78
2021/09/30 14:08:11;;;;;;;5.55;1.60;;;;;;;;;;5098301;28;20044;-80
2021/09/30 14:10:39;;;;;;;5.75;1.77;;;;;;;;;;5097622;28;20040;-80
2021/09/30 14:13:04;;;;;;;6.45;1.35;;;;;;;;;;5098027;28;20039;-79
2021/09/30 14:15:30;;;;;;;5.70;1.63;;;;;;;;;;5097432;28;20027;-79
2021/09/30 14:17:55;;;;;;;6.60;2.45;;;;;;;;;;5095899;28;20036;-78
2021/09/30 14:20:21;;;;;;;4.88;2.17;;;;;;;;;;5098925;28;20117;-78
2021/09/30 14:22:46;;;;;;;5.05;1.55;;;;;;;;;;5094183;28;20036;-76
2021/09/30 14:25:13;;;;;;;6.93;1.50;;;;;;;;;;5094551;28;20039;-76
2021/09/30 14:27:39;;;;;;;6.32;1.73;;;;;;;;;;5094320;28;20076;-76
2021/09/30 14:30:08;;;;;;;10.40;1.35;;;;;;;;;;5093071;28;20055;-76
2021/09/30 14:32:34;;;;;;;4.07;1.20;;;;;;;;;;5076311;28;20032;-76
2021/09/30 14:34:59;;;;;;;9.95;1.63;;;;;;;;;;5094178;28;20032;-76
2021/09/30 14:37:25;;;;;;;5.97;1.77;;;;;;;;;;5094317;28;20051;-76
2021/09/30 14:39:52;;;;;;;5.32;1.77;;;;;;;;;;5093664;28;20395;-76
2021/09/30 14:42:17;;;;;;;9.25;1.75;;;;;;;;;;5093067;28;20499;-76
2021/09/30 14:44:46;;;;;;;5.15;1.55;;;;;;;;;;5094088;28;20020;-76
2021/09/30 14:47:13;;;;;;;6.43;2.15;;;;;;;;;;5093703;28;20035;-76
2021/09/30 14:49:39;;;;;;;5.88;1.85;;;;;;;;;;5093953;28;20032;-76
2021/09/30 14:52:10;;;;;;;3.88;1.23;;;;;;;;;;5092786;28;20391;-76
2021/09/30 14:54:36;;;;;;;3.75;0.95;;;;;;;;;;5094109;28;20623;-76
2021/09/30 14:57:01;;;;;;;2.75;0.98;;;;;;;;;;5092251;28;20036;-76
2021/09/30 14:59:27;;;;;;;3.50;1.02;;;;;;;;;;5093644;28;20089;-76
2021/09/30 15:01:52;;;;;;;4.70;1.25;;;;;;;;;;5093252;28;20042;-76
2021/09/30 15:04:17;;;;;;;3.15;1.02;;;;;;;;;;5091163;28;20440;-76
2021/09/30 15:06:43;;;;;;;6.18;1.88;;;;;;;;;;5092146;28;20490;-76
2021/09/30 15:09:09;;;;;;;8.02;1.30;;;;;;;;;;5074857;28;20063;-76
2021/09/30 15:11:37;;;;;;;6.10;1.27;;;;;;;;;;5093019;28;20491;-76
2021/09/30 15:14:07;;;;;;;6.63;1.52;;;;;;;;;;5092074;28;20040;-76
2021/09/30 15:16:35;;;;;;;7.20;1.40;;;;;;;;;;5092492;28;20071;-76
2021/09/30 15:19:04;;;;;;;4.60;1.15;;;;;;;;;;5093561;28;20096;-77
2021/09/30 15:21:31;;;;;;;4.63;1.25;;;;;;;;;;5093808;28;20024;-76
2021/09/30 15:24:01;;;;;;;10.35;2.30;;;;;;;;;;5093252;28;20043;-77
2021/09/30 15:26:28;;;;;;;7.30;1.40;;;;;;;;;;5075884;28;20523;-76
2021/09/30 15:28:54;;;;;;;3.80;1.13;;;;;;;;;;5092117;28;20383;-76
2021/09/30 15:31:21;;;;;;;3.53;1.00;;;;;;;;;;5092022;28;20483;-76
2021/09/30 15:33:50;;;;;;;3.95;1.48;;;;;;;;;;5092006;28;20039;-76
2021/09/30 15:36:19;;;;;;;4.50;1.10;;;;;;;;;;5093346;28;20032;-76
2021/09/30 15:38:46;;;;;;;5.60;1.83;;;;;;;;;;5093055;28;20036;-76
2021/09/30 15:41:12;;;;;;;6.85;2.83;;;;;;;;;;5091692;28;20043;-76
2021/09/30 15:43:37;;;;;;;7.88;2.03;;;;;;;;;;5091919;28;20042;-76
2021/09/30 15:46:04;;;;;;;3.13;1.58;;;;;;;;;;5090976;28;20020;-76
2021/09/30 15:48:30;;;;;;;6.05;1.75;;;;;;;;;;5090707;28;20036;-76
2021/09/30 15:50:56;;;;;;;4.13;1.50;;;;;;;;;;5092297;28;20077;-76
2021/09/30 15:53:22;;;;;;;5.50;2.38;;;;;;;;;;5092852;28;20032;-76
2021/09/30 15:55:47;;;;;;;6.15;1.90;;;;;;;;;;5093069;28;20436;-76
2021/09/30 15:58:13;;;;;;;7.10;2.00;;;;;;;;;;5090745;28;20036;-76
2021/09/30 16:00:39;;;;;;;6.43;1.95;;;;;;;;;;5092974;28;20032;-76
2021/09/30 16:03:05;;;;;;;8.27;1.80;;;;;;;;;;5091612;28;20036;-76
2021/09/30 16:05:30;;;;;;;3.78;1.50;;;;;;;;;;5092822;28;20372;-76
2021/09/30 16:07:55;;;;;;;5.95;1.58;;;;;;;;;;5092548;28;20051;-77
2021/09/30 16:10:21;;;;;;;5.20;1.63;;;;;;;;;;5092432;28;20043;-76
2021/09/30 16:12:46;;;;;;;4.82;1.55;;;;;;;;;;5091581;28;20039;-76
2021/09/30 16:15:12;;;;;;;3.70;1.40;;;;;;;;;;5096182;28;20473;-76
2021/09/30 16:17:37;;;;;;;6.75;1.95;;;;;;;;;;5096825;28;20036;-76
2021/09/30 16:20:05;;;;;;;4.45;1.90;;;;;;;;;;5096848;28;20034;-76
2021/09/30 16:22:30;;;;;;;4.75;1.77;;;;;;;;;;5097067;28;20038;-76
2021/09/30 16:24:56;;;;;;;4.13;1.60;;;;;;;;;;5096822;28;20032;-76
2021/09/30 16:27:23;;;;;;;7.13;1.50;;;;;;;;;;5096605;28;20364;-76
2021/09/30 16:29:48;;;;;;;7.38;1.60;;;;;;;;;;5096633;28;20126;-76
2021/09/30 16:32:14;;;;;;;6.35;1.30;;;;;;;;;;5096399;28;20427;-77
2021/09/30 16:34:40;;;;;;;8.27;1.65;;;;;;;;;;5100206;28;20040;-79
2021/09/30 16:37:06;;;;;;;4.25;1.20;;;;;;;;;;5097033;28;20490;-79
2021/09/30 16:39:32;;;;;;;3.90;1.30;;;;;;;;;;5098076;28;20036;-76
2021/09/30 16:41:57;;;;;;;4.57;1.50;;;;;;;;;;5096728;28;20160;-76
2021/09/30 16:44:23;;;;;;;2.33;1.27;;;;;;;;;;5098561;28;20058;-77
2021/09/30 16:46:50;;;;;;;6.57;1.30;;;;;;;;;;5097159;28;20040;-77
2021/09/30 16:49:16;;;;;;;5.75;1.52;;;;;;;;;;5097139;28;20039;-77
2021/09/30 16:51:42;;;;;;;4.00;1.52;;;;;;;;;;5095433;28;20040;-77
2021/09/30 16:54:08;;;;;;;6.82;1.48;;;;;;;;;;5096616;28;20032;-77
2021/09/30 16:56:33;;;;;;;6.47;2.28;;;;;;;;;;5097264;28;20043;-78
2021/09/30 16:58:59;;;;;;;9.25;1.20;;;;;;;;;;5095105;28;20032;-78
2021/09/30 17:01:24;;;;;;;8.13;1.30;;;;;;;;;;5080070;28;20032;-78
2021/09/30 17:03:49;;;;;;;6.28;1.20;;;;;;;;;;5097103;28;20505;-77
2021/09/30 17:06:15;;;;;;;6.57;1.63;;;;;;;;;;5099551;28;20047;-77
2021/09/30 17:08:40;;;;;;;4.90;1.30;;;;;;;;;;5097849;28;20040;-76
2021/09/30 17:11:08;;;;;;;3.47;1.20;;;;;;;;;;5079074;28;20039;-75
2021/09/30 17:13:35;;;;;;;8.45;1.17;;;;;;;;;;5096150;28;20060;-75
2021/09/30 17:16:00;;;;;;;2.38;1.10;;;;;;;;;;5096346;28;20078;-75
2021/09/30 17:18:28;;;;;;;4.28;1.20;;;;;;;;;;5096405;28;20035;-75
2021/09/30 17:20:56;;;;;;;4.25;1.40;;;;;;;;;;5097774;28;20044;-75
2021/09/30 17:23:22;;;;;;;4.10;1.52;;;;;;;;;;5097767;28;20035;-75
2021/09/30 17:25:48;;;;;;;2.45;1.20;;;;;;;;;;5097718;28;20419;-76
2021/09/30 17:28:14;;;;;;;4.88;1.50;;;;;;;;;;5096715;28;20032;-75
2021/09/30 17:30:40;;;;;;;3.35;1.38;;;;;;;;;;5097488;28;20031;-75
2021/09/30 17:33:05;;;;;;;3.38;1.30;;;;;;;;;;5097219;28;20115;-76
2021/09/30 17:35:30;;;;;;;3.05;1.20;;;;;;;;;;5097260;28;20425;-75